Time;durP1;ratioP1;P1;durP2;ratioP2;P2;SDS_P1;SDS_P2;PMS_P1;PMS_P2;Temp;Humidity;BMP_temperature;BMP_pressure;BME280_temperature;BME280_humidity;BME280_pressure;Samples;Min_cycle;Max_cycle;Signal;HPM_P1;HPM_P2
2023/06/05 00:02:22;;;;;;;1.20;1.10;;;18.70;56.30;;;;;;5017029;28;20232;-70
2023/06/05 00:04:48;;;;;;;1.30;1.20;;;18.70;56.20;;;;;;4992551;28;20292;-70
2023/06/05 00:07:13;;;;;;;1.80;1.70;;;18.60;56.20;;;;;;5009639;28;20289;-72
2023/06/05 00:09:39;;;;;;;2.53;2.20;;;18.60;56.30;;;;;;5008249;28;20229;-71
2023/06/05 00:12:06;;;;;;;1.30;1.20;;;18.60;56.20;;;;;;5009360;28;20220;-72
2023/06/05 00:14:32;;;;;;;2.00;1.77;;;18.60;56.10;;;;;;5006954;28;20696;-72
2023/06/05 00:16:57;;;;;;;2.60;1.40;;;18.50;56.00;;;;;;5012376;28;20464;-72
2023/06/05 00:19:23;;;;;;;1.83;1.60;;;18.50;56.20;;;;;;5012826;28;20245;-71
2023/06/05 00:21:52;;;;;;;2.43;1.90;;;18.40;56.20;;;;;;5009549;28;20210;-71
2023/06/05 00:24:18;;;;;;;2.33;1.43;;;18.40;56.00;;;;;;5005229;28;20724;-72
2023/06/05 00:26:44;;;;;;;1.73;1.40;;;18.40;56.20;;;;;;5007968;28;20475;-72
2023/06/05 00:29:10;;;;;;;1.40;1.30;;;18.40;56.20;;;;;;4997600;28;20217;-72
2023/06/05 00:31:35;;;;;;;1.57;1.40;;;18.30;56.00;;;;;;5016782;28;20966;-71
2023/06/05 00:34:01;;;;;;;1.40;1.30;;;18.30;56.20;;;;;;5011796;28;20233;-71
2023/06/05 00:36:27;;;;;;;3.30;1.70;;;18.30;56.40;;;;;;5009746;28;20218;-72
2023/06/05 00:38:53;;;;;;;2.10;1.80;;;18.20;56.20;;;;;;5008559;28;20643;-70
2023/06/05 00:41:20;;;;;;;1.77;1.60;;;18.20;56.20;;;;;;5007954;28;20544;-71
2023/06/05 00:43:46;;;;;;;1.73;1.63;;;18.30;56.20;;;;;;5015914;28;20528;-71
2023/06/05 00:46:13;;;;;;;1.67;1.30;;;18.30;56.30;;;;;;5008365;28;20263;-72
2023/06/05 00:48:41;;;;;;;2.50;1.70;;;18.30;56.30;;;;;;5004219;28;20242;-70
2023/06/05 00:51:07;;;;;;;3.17;1.87;;;18.20;56.10;;;;;;5009468;28;20465;-71
2023/06/05 00:53:36;;;;;;;1.90;1.30;;;18.20;56.50;;;;;;5007684;28;20465;-72
2023/06/05 00:56:02;;;;;;;1.43;1.33;;;18.10;56.20;;;;;;5001932;28;20473;-71
2023/06/05 00:58:30;;;;;;;1.00;1.00;;;18.10;56.20;;;;;;5002686;28;20464;-72
2023/06/05 01:00:57;;;;;;;2.90;1.47;;;18.20;56.80;;;;;;4987021;28;20600;-71
2023/06/05 01:03:24;;;;;;;2.00;1.27;;;18.10;56.40;;;;;;5004638;28;20454;-70
2023/06/05 01:05:50;;;;;;;4.30;1.50;;;18.20;56.30;;;;;;5007553;28;20520;-72
2023/06/05 01:08:17;;;;;;;2.07;1.70;;;18.10;56.00;;;;;;5010964;28;21001;-70
2023/06/05 01:10:44;;;;;;;1.67;1.43;;;18.10;56.50;;;;;;5005133;28;20229;-74
2023/06/05 01:13:26;;;;;;;2.10;1.73;;;18.10;56.20;;;;;;4994504;28;20461;-71
2023/06/05 01:15:53;;;;;;;1.93;1.57;;;18.10;56.30;;;;;;5011938;28;20479;-71
2023/06/05 01:18:22;;;;;;;1.63;1.53;;;18.10;56.30;;;;;;4996344;28;20476;-71
2023/06/05 01:20:47;;;;;;;1.60;1.50;;;18.10;56.30;;;;;;4991761;28;20518;-71
2023/06/05 01:23:13;;;;;;;1.33;1.23;;;18.10;56.80;;;;;;4991987;28;20452;-72
2023/06/05 01:25:42;;;;;;;1.20;1.07;;;18.10;56.20;;;;;;4992388;28;20604;-72
2023/06/05 01:28:08;;;;;;;1.70;1.60;;;18.00;56.10;;;;;;5004734;28;20464;-70
2023/06/05 01:31:00;;;;;;;2.60;1.60;;;18.00;56.40;;;;;;5000482;28;20854;-72
2023/06/05 01:33:44;;;;;;;1.63;1.40;;;18.00;56.00;;;;;;5009053;28;20241;-70
2023/06/05 01:36:11;;;;;;;1.40;1.30;;;17.80;56.20;;;;;;5010756;28;20484;-71
2023/06/05 01:38:40;;;;;;;1.50;1.40;;;17.80;56.10;;;;;;5014068;28;20445;-70
2023/06/05 01:41:07;;;;;;;1.40;1.30;;;17.80;56.30;;;;;;5002539;28;20453;-72
2023/06/05 01:43:33;;;;;;;2.20;1.40;;;17.90;56.30;;;;;;4990484;28;20531;-71
2023/06/05 01:45:59;;;;;;;2.50;1.40;;;17.90;55.80;;;;;;4992586;28;20460;-70
2023/06/05 01:48:30;;;;;;;1.60;1.43;;;17.90;56.10;;;;;;5006982;28;20457;-70
2023/06/05 01:51:02;;;;;;;1.63;1.53;;;17.90;56.10;;;;;;5008310;28;20901;-70
2023/06/05 01:53:29;;;;;;;1.87;1.50;;;17.80;56.10;;;;;;5004948;28;20474;-71
2023/06/05 01:55:57;;;;;;;1.30;1.20;;;17.80;56.30;;;;;;4991374;28;20457;-71
2023/06/05 01:58:26;;;;;;;1.50;1.40;;;17.70;56.20;;;;;;5006983;28;20448;-72
2023/06/05 02:00:53;;;;;;;2.00;1.50;;;17.70;56.20;;;;;;5008273;28;20453;-73
2023/06/05 02:03:21;;;;;;;3.67;1.83;;;17.80;56.30;;;;;;5006759;28;20831;-71
2023/06/05 02:05:47;;;;;;;1.83;1.20;;;17.80;56.30;;;;;;5009313;28;20532;-70
2023/06/05 02:08:13;;;;;;;1.47;1.37;;;17.80;56.10;;;;;;5006544;28;20902;-70
2023/06/05 02:10:43;;;;;;;1.50;1.40;;;17.80;56.10;;;;;;4978018;28;20467;-71
2023/06/05 02:13:10;;;;;;;2.30;1.47;;;17.80;56.00;;;;;;4998210;28;20460;-71
2023/06/05 02:15:37;;;;;;;2.17;1.50;;;17.80;56.30;;;;;;5014712;28;20872;-72
2023/06/05 02:18:04;;;;;;;1.67;1.50;;;17.80;56.00;;;;;;5015712;28;20476;-71
2023/06/05 02:20:32;;;;;;;1.43;1.30;;;17.70;56.00;;;;;;5014448;28;20460;-71
2023/06/05 02:22:58;;;;;;;1.33;1.23;;;17.60;56.00;;;;;;4995006;28;20532;-71
2023/06/05 02:25:28;;;;;;;2.07;1.50;;;17.60;56.20;;;;;;4994266;28;20460;-71
2023/06/05 02:27:55;;;;;;;1.50;1.40;;;17.60;56.10;;;;;;5007683;28;20465;-71
2023/06/05 02:30:21;;;;;;;1.50;1.40;;;17.50;56.10;;;;;;4991614;28;20473;-72
2023/06/05 02:32:48;;;;;;;1.30;1.20;;;17.50;56.30;;;;;;4991107;28;20836;-70
2023/06/05 02:35:15;;;;;;;2.57;1.73;;;17.60;56.40;;;;;;4992210;28;20460;-72
2023/06/05 02:37:44;;;;;;;1.30;1.20;;;17.60;56.30;;;;;;5006488;28;20445;-70
2023/06/05 02:40:12;;;;;;;4.40;1.70;;;17.60;56.20;;;;;;4989714;28;20234;-71
2023/06/05 02:42:38;;;;;;;2.00;1.60;;;17.60;56.30;;;;;;5007615;28;20449;-70
2023/06/05 02:45:05;;;;;;;1.47;1.37;;;17.60;56.30;;;;;;4991308;28;20522;-71
2023/06/05 02:47:31;;;;;;;1.30;1.20;;;17.50;56.20;;;;;;5010181;28;20456;-72
2023/06/05 02:49:59;;;;;;;1.70;1.60;;;17.50;56.20;;;;;;5009851;28;20464;-71
2023/06/05 02:52:24;;;;;;;1.53;1.43;;;17.50;56.20;;;;;;5019065;28;20460;-71
2023/06/05 02:54:51;;;;;;;1.40;1.30;;;17.40;56.20;;;;;;4994257;28;21001;-72
2023/06/05 02:57:17;;;;;;;1.63;1.50;;;17.40;56.30;;;;;;5004526;28;20469;-72
2023/06/05 02:59:44;;;;;;;1.97;1.80;;;17.40;56.40;;;;;;5008374;28;20475;-69
2023/06/05 03:02:13;;;;;;;2.97;1.70;;;17.30;56.30;;;;;;4995519;28;20461;-73
2023/06/05 03:04:42;;;;;;;1.83;1.60;;;17.30;56.30;;;;;;5009622;28;20482;-72
2023/06/05 03:07:09;;;;;;;2.00;1.80;;;17.20;56.40;;;;;;5012010;28;20461;-72
2023/06/05 03:09:36;;;;;;;1.87;1.77;;;17.20;56.50;;;;;;5010653;28;20536;-71
2023/06/05 03:12:02;;;;;;;2.07;1.80;;;17.20;56.60;;;;;;4993050;28;20551;-71
2023/06/05 03:14:32;;;;;;;4.93;1.60;;;17.20;56.50;;;;;;4994200;28;20483;-71
2023/06/05 03:16:59;;;;;;;1.50;1.40;;;17.20;56.80;;;;;;5011870;28;20461;-73
2023/06/05 03:19:26;;;;;;;2.93;1.90;;;17.20;56.70;;;;;;5010627;28;20900;-70
2023/06/05 03:21:53;;;;;;;1.40;1.30;;;17.20;56.70;;;;;;5005389;28;20453;-72
2023/06/05 03:24:20;;;;;;;1.50;1.40;;;17.20;56.60;;;;;;4990765;28;20462;-72
2023/06/05 03:26:52;;;;;;;1.20;1.10;;;17.20;56.80;;;;;;4997773;28;21196;-71
2023/06/05 03:29:17;;;;;;;3.60;1.43;;;17.20;56.60;;;;;;4991657;28;20934;-72
2023/06/05 03:31:44;;;;;;;1.97;1.80;;;17.20;56.60;;;;;;5002021;28;20657;-71
2023/06/05 03:34:11;;;;;;;1.80;1.70;;;17.20;56.60;;;;;;5010655;28;20978;-72
2023/06/05 03:36:39;;;;;;;2.20;1.50;;;17.20;56.70;;;;;;5011449;28;20449;-72
2023/06/05 03:39:07;;;;;;;2.00;1.80;;;17.20;56.80;;;;;;4989919;28;20218;-71
2023/06/05 03:41:35;;;;;;;2.10;1.57;;;17.10;56.80;;;;;;5008551;28;20459;-71
2023/06/05 03:44:03;;;;;;;2.67;1.60;;;17.10;56.80;;;;;;5014017;28;20465;-71
2023/06/05 03:46:29;;;;;;;1.87;1.67;;;17.10;56.80;;;;;;5010400;28;20461;-70
2023/06/05 03:48:59;;;;;;;3.50;1.53;;;17.10;56.90;;;;;;5008932;28;20491;-71
2023/06/05 03:51:30;;;;;;;4.40;1.67;;;17.10;56.90;;;;;;5008786;28;20845;-70
2023/06/05 03:53:58;;;;;;;2.10;1.90;;;17.10;57.00;;;;;;5005279;28;20987;-71
2023/06/05 03:56:31;;;;;;;2.90;2.30;;;17.00;57.00;;;;;;5009238;28;21053;-71
2023/06/05 03:58:58;;;;;;;2.40;1.70;;;17.00;57.20;;;;;;5009991;28;21091;-70
2023/06/05 04:01:24;;;;;;;2.90;1.70;;;16.90;57.30;;;;;;5009880;28;20453;-69
2023/06/05 04:03:50;;;;;;;4.90;1.70;;;16.80;57.40;;;;;;4992900;28;20812;-71
2023/06/05 04:06:16;;;;;;;1.63;1.53;;;16.80;57.30;;;;;;5010769;28;20552;-70
2023/06/05 04:08:42;;;;;;;3.63;1.77;;;16.80;57.30;;;;;;4989353;28;20305;-69
2023/06/05 04:11:07;;;;;;;2.20;1.60;;;16.90;57.50;;;;;;4993220;28;20218;-71
2023/06/05 04:13:33;;;;;;;2.03;1.83;;;16.80;57.40;;;;;;4991319;28;20309;-71
2023/06/05 04:16:02;;;;;;;2.00;1.80;;;16.90;57.70;;;;;;5006045;28;20309;-71
2023/06/05 04:18:28;;;;;;;1.77;1.67;;;16.90;57.60;;;;;;4991166;28;21018;-71
2023/06/05 04:20:54;;;;;;;2.87;1.73;;;16.90;57.50;;;;;;5004510;28;20476;-70
2023/06/05 04:23:22;;;;;;;2.23;1.90;;;16.90;57.70;;;;;;5006876;28;20293;-71
2023/06/05 04:25:48;;;;;;;1.60;1.33;;;16.90;57.50;;;;;;5009895;28;20510;-71
2023/06/05 04:28:15;;;;;;;1.60;1.50;;;16.90;57.50;;;;;;5010620;28;20457;-71
2023/06/05 04:30:41;;;;;;;2.97;2.60;;;16.90;57.80;;;;;;4998973;28;20476;-72
2023/06/05 04:33:06;;;;;;;1.80;1.70;;;16.90;57.90;;;;;;5007599;28;20507;-71
2023/06/05 04:35:35;;;;;;;3.20;2.67;;;16.90;57.70;;;;;;4980774;28;20728;-71
2023/06/05 04:38:00;;;;;;;2.83;1.60;;;17.00;57.90;;;;;;5004391;28;20530;-70
2023/06/05 04:40:26;;;;;;;2.27;1.53;;;16.90;57.70;;;;;;4990290;28;20238;-70
2023/06/05 04:42:54;;;;;;;3.80;2.37;;;16.90;57.80;;;;;;5000597;28;20445;-72
2023/06/05 04:45:21;;;;;;;9.00;1.80;;;17.00;57.80;;;;;;5002001;28;20465;-69
2023/06/05 04:47:47;;;;;;;1.73;1.57;;;17.00;57.90;;;;;;5002671;28;20459;-72
2023/06/05 04:50:26;;;;;;;2.87;1.83;;;17.00;58.10;;;;;;4989113;28;20469;-69
2023/06/05 04:52:56;;;;;;;4.30;1.53;;;17.00;58.40;;;;;;4998717;28;20301;-70
2023/06/05 04:55:22;;;;;;;1.97;1.80;;;17.00;58.20;;;;;;4988047;28;20459;-70
2023/06/05 04:57:53;;;;;;;4.13;1.70;;;17.00;58.20;;;;;;4987781;28;20499;-71
2023/06/05 05:00:19;;;;;;;1.90;1.80;;;17.10;58.40;;;;;;4988240;28;20524;-71
2023/06/05 05:02:45;;;;;;;3.43;2.03;;;17.10;58.50;;;;;;4991516;28;20444;-71
2023/06/05 05:05:13;;;;;;;6.43;2.10;;;17.10;58.80;;;;;;5005385;28;21002;-72
2023/06/05 05:07:42;;;;;;;2.37;1.90;;;17.10;58.80;;;;;;5008055;28;20646;-71
2023/06/05 05:10:08;;;;;;;2.50;1.80;;;17.20;59.00;;;;;;4980519;28;20457;-70
2023/06/05 05:12:35;;;;;;;3.00;1.90;;;17.20;59.00;;;;;;4985835;28;20442;-70
2023/06/05 05:15:02;;;;;;;2.17;1.63;;;17.20;59.00;;;;;;5003437;28;20445;-72
2023/06/05 05:17:29;;;;;;;1.77;1.67;;;17.20;59.10;;;;;;5005326;28;20505;-72
2023/06/05 05:19:55;;;;;;;4.67;1.80;;;17.20;59.10;;;;;;5005552;28;20464;-70
2023/06/05 05:22:23;;;;;;;1.97;1.67;;;17.20;59.70;;;;;;4998608;28;20466;-72
2023/06/05 05:24:49;;;;;;;5.80;1.77;;;17.30;59.30;;;;;;4983060;28;20465;-71
2023/06/05 05:27:14;;;;;;;2.33;1.80;;;17.30;59.30;;;;;;5003400;28;20516;-71
2023/06/05 05:29:40;;;;;;;1.83;1.30;;;17.30;59.50;;;;;;4989355;28;20222;-71
2023/06/05 05:32:06;;;;;;;2.10;1.63;;;17.30;59.50;;;;;;5009350;28;20213;-71
2023/06/05 05:34:33;;;;;;;3.30;3.10;;;17.30;60.00;;;;;;4992990;28;20461;-72
2023/06/05 05:36:59;;;;;;;2.10;1.93;;;17.40;59.90;;;;;;5002300;28;20344;-70
2023/06/05 05:39:25;;;;;;;7.73;3.57;;;17.40;60.00;;;;;;5003960;28;20494;-71
2023/06/05 05:41:51;;;;;;;5.00;3.30;;;17.50;60.00;;;;;;5004240;28;20217;-71
2023/06/05 05:44:17;;;;;;;2.90;2.60;;;17.50;59.80;;;;;;5017154;28;20308;-71
2023/06/05 05:46:45;;;;;;;5.53;1.70;;;17.60;60.00;;;;;;5002486;28;20855;-70
2023/06/05 05:49:11;;;;;;;2.17;1.50;;;17.60;62.10;;;;;;4998891;28;20233;-72
2023/06/05 05:51:36;;;;;;;3.50;2.23;;;17.70;62.00;;;;;;5005924;28;20461;-72
2023/06/05 05:54:02;;;;;;;3.87;2.00;;;17.80;63.10;;;;;;5002293;28;20246;-71
2023/06/05 05:56:28;;;;;;;2.50;1.90;;;17.80;63.30;;;;;;5004793;28;20282;-72
2023/06/05 05:58:54;;;;;;;4.70;1.87;;;17.80;62.60;;;;;;5006967;28;20216;-71
2023/06/05 06:01:21;;;;;;;2.73;1.80;;;17.90;63.30;;;;;;4999473;28;20458;-72
2023/06/05 06:03:48;;;;;;;3.23;2.03;;;18.00;63.40;;;;;;4987711;28;20767;-71
2023/06/05 06:06:13;;;;;;;2.20;1.60;;;18.00;64.20;;;;;;5000743;28;20477;-70
2023/06/05 06:08:39;;;;;;;1.90;1.80;;;18.10;64.30;;;;;;5000160;28;20565;-70
2023/06/05 06:11:06;;;;;;;2.60;1.73;;;18.20;64.10;;;;;;5004323;28;20287;-73
2023/06/05 06:13:35;;;;;;;8.73;1.80;;;18.20;64.70;;;;;;5000724;28;20296;-72
2023/06/05 06:16:02;;;;;;;2.17;1.60;;;18.30;64.70;;;;;;5003281;28;20469;-72
2023/06/05 06:18:28;;;;;;;2.90;1.97;;;18.30;64.00;;;;;;5001131;28;20870;-72
2023/06/05 06:20:55;;;;;;;2.57;1.97;;;18.40;65.10;;;;;;4996370;28;20469;-71
2023/06/05 06:23:21;;;;;;;2.03;1.83;;;18.50;64.80;;;;;;5005874;28;21000;-72
2023/06/05 06:25:46;;;;;;;1.87;1.77;;;18.50;64.60;;;;;;5009900;28;20480;-70
2023/06/05 06:28:12;;;;;;;2.40;1.73;;;18.60;65.20;;;;;;4986687;28;20592;-72
2023/06/05 06:30:38;;;;;;;2.30;1.60;;;18.50;63.70;;;;;;5007317;28;20692;-72
2023/06/05 06:33:04;;;;;;;2.13;1.73;;;18.60;64.90;;;;;;5007499;28;20684;-73
2023/06/05 06:35:31;;;;;;;2.40;1.97;;;18.70;64.00;;;;;;5009416;28;20221;-72
2023/06/05 06:37:58;;;;;;;3.27;2.17;;;18.80;64.00;;;;;;4991867;28;20214;-73
2023/06/05 06:40:24;;;;;;;1.77;1.60;;;18.90;65.00;;;;;;4988957;28;21029;-72
2023/06/05 06:42:50;;;;;;;4.57;1.53;;;19.10;65.40;;;;;;5005396;28;20563;-72
2023/06/05 06:45:35;;;;;;;2.40;1.80;;;19.10;63.90;;;;;;4993578;28;20708;-72
2023/06/05 06:48:01;;;;;;;1.77;1.53;;;19.10;64.20;;;;;;5002878;28;20474;-71
2023/06/05 06:50:26;;;;;;;2.37;1.93;;;19.20;64.80;;;;;;5007583;28;20216;-71
2023/06/05 06:52:52;;;;;;;2.23;1.90;;;19.30;64.30;;;;;;5008538;28;20224;-72
2023/06/05 06:55:18;;;;;;;1.83;1.70;;;19.30;64.80;;;;;;5001643;28;20225;-71
2023/06/05 06:57:43;;;;;;;2.97;1.70;;;19.40;64.90;;;;;;5007829;28;20218;-71
2023/06/05 07:00:09;;;;;;;2.70;2.03;;;19.60;64.80;;;;;;4982549;28;20640;-71
2023/06/05 07:02:36;;;;;;;2.47;2.20;;;19.60;64.20;;;;;;5003271;28;20233;-72
2023/06/05 07:05:02;;;;;;;3.17;2.30;;;19.80;64.80;;;;;;5007591;28;20236;-70
2023/06/05 07:07:27;;;;;;;2.07;1.93;;;20.00;64.10;;;;;;5005849;28;20473;-71
2023/06/05 07:09:53;;;;;;;1.97;1.70;;;20.10;63.80;;;;;;5004966;28;20990;-72
2023/06/05 07:12:20;;;;;;;1.40;1.30;;;20.00;63.70;;;;;;5008531;28;20234;-71
2023/06/05 07:14:46;;;;;;;2.00;1.70;;;20.10;63.90;;;;;;5004626;28;20228;-71
2023/06/05 07:17:12;;;;;;;8.43;3.43;;;20.20;63.30;;;;;;5010349;28;20484;-70
2023/06/05 07:19:39;;;;;;;1.70;1.60;;;20.30;62.60;;;;;;5009647;28;20469;-71
2023/06/05 07:22:05;;;;;;;1.90;1.80;;;20.40;61.70;;;;;;5003987;28;20487;-71
2023/06/05 07:24:31;;;;;;;2.23;1.83;;;20.50;60.90;;;;;;5009376;28;20839;-71
2023/06/05 07:27:00;;;;;;;1.97;1.70;;;20.60;59.90;;;;;;5006768;28;20552;-70
2023/06/05 07:29:26;;;;;;;2.20;2.00;;;20.60;59.40;;;;;;4986318;28;20484;-72
2023/06/05 07:31:53;;;;;;;1.63;1.53;;;20.70;59.80;;;;;;5005432;28;20862;-72
2023/06/05 07:34:21;;;;;;;1.70;1.60;;;20.70;59.70;;;;;;5009521;28;20487;-72
2023/06/05 07:36:48;;;;;;;3.50;1.50;;;20.70;59.00;;;;;;5007898;28;20488;-72
2023/06/05 07:39:17;;;;;;;1.90;1.47;;;21.00;59.40;;;;;;4999143;28;20546;-71
2023/06/05 07:41:42;;;;;;;2.20;2.00;;;21.10;59.30;;;;;;5006699;28;21030;-72
2023/06/05 07:44:14;;;;;;;2.50;1.83;;;21.10;58.90;;;;;;5003238;28;20457;-71
2023/06/05 07:46:40;;;;;;;1.90;1.80;;;21.10;59.10;;;;;;5019993;28;20552;-72
2023/06/05 07:49:07;;;;;;;2.60;2.17;;;21.30;59.20;;;;;;4992117;28;20502;-70
2023/06/05 07:51:35;;;;;;;3.10;2.00;;;21.40;58.80;;;;;;5006527;28;20464;-72
2023/06/05 07:54:09;;;;;;;3.77;2.07;;;21.40;58.70;;;;;;4988699;28;20508;-72
2023/06/05 07:56:36;;;;;;;2.00;1.40;;;21.50;58.80;;;;;;5006133;28;20486;-72
2023/06/05 07:59:03;;;;;;;3.30;2.13;;;21.60;58.50;;;;;;4980912;28;20476;-72
2023/06/05 08:01:30;;;;;;;2.80;1.83;;;21.70;58.50;;;;;;4990834;28;20525;-74
2023/06/05 08:03:56;;;;;;;2.03;1.83;;;21.80;58.70;;;;;;4984929;28;20551;-72
2023/06/05 08:06:24;;;;;;;2.63;2.10;;;21.90;58.60;;;;;;4988068;28;20560;-73
2023/06/05 08:08:52;;;;;;;3.70;2.50;;;22.00;58.40;;;;;;5004962;28;20232;-72
2023/06/05 08:11:18;;;;;;;4.13;2.10;;;22.00;58.50;;;;;;5002895;28;20980;-71
2023/06/05 08:13:45;;;;;;;2.30;2.10;;;22.10;58.50;;;;;;5009011;28;20482;-73
2023/06/05 08:16:10;;;;;;;4.90;2.20;;;22.10;58.50;;;;;;5001824;28;20274;-72
2023/06/05 08:18:36;;;;;;;1.90;1.80;;;22.10;58.60;;;;;;4983914;28;20935;-71
2023/06/05 08:21:02;;;;;;;4.07;2.70;;;22.30;58.50;;;;;;5001939;28;20217;-72
2023/06/05 08:23:27;;;;;;;2.20;1.70;;;22.30;58.70;;;;;;5005358;28;20213;-72
2023/06/05 08:25:54;;;;;;;4.17;2.63;;;22.50;58.80;;;;;;4995561;28;20267;-72
2023/06/05 08:28:20;;;;;;;1.87;1.77;;;22.60;58.60;;;;;;5002878;28;20236;-72
2023/06/05 08:30:45;;;;;;;2.33;2.10;;;22.60;58.30;;;;;;5007409;28;20517;-72
2023/06/05 08:33:11;;;;;;;2.00;1.90;;;22.70;58.10;;;;;;4996055;28;21005;-72
2023/06/05 08:35:40;;;;;;;2.60;1.80;;;22.70;58.30;;;;;;5005136;28;20575;-71
2023/06/05 08:38:06;;;;;;;2.03;1.93;;;22.80;58.40;;;;;;5008308;28;20260;-72
2023/06/05 08:40:33;;;;;;;3.43;2.37;;;22.70;58.80;;;;;;5001589;28;21168;-72
2023/06/05 08:43:03;;;;;;;4.13;2.20;;;22.80;58.70;;;;;;5004422;28;20777;-72
2023/06/05 08:45:30;;;;;;;2.17;2.00;;;23.00;58.40;;;;;;5004037;28;20479;-73
2023/06/05 08:47:59;;;;;;;2.10;1.90;;;23.10;58.20;;;;;;5006906;28;20448;-72
2023/06/05 08:50:27;;;;;;;3.60;1.90;;;23.20;58.40;;;;;;4997991;28;20488;-72
2023/06/05 08:52:56;;;;;;;2.80;2.20;;;23.20;58.50;;;;;;4982178;28;20460;-72
2023/06/05 08:55:22;;;;;;;2.87;2.40;;;23.20;58.50;;;;;;4998191;28;20495;-72
2023/06/05 08:57:48;;;;;;;2.87;2.67;;;23.50;58.10;;;;;;5005434;28;20456;-73
2023/06/05 09:00:14;;;;;;;2.97;2.13;;;23.60;58.20;;;;;;5007343;28;20486;-73
2023/06/05 09:02:46;;;;;;;2.37;1.93;;;23.70;58.70;;;;;;4991652;28;20684;-73
2023/06/05 09:05:15;;;;;;;2.30;2.07;;;23.70;58.40;;;;;;5004127;28;20484;-73
2023/06/05 09:07:41;;;;;;;2.60;2.40;;;24.00;58.30;;;;;;5004587;28;20543;-73
2023/06/05 09:10:21;;;;;;;2.50;2.30;;;24.00;58.30;;;;;;5000607;28;20571;-74
2023/06/05 09:13:03;;;;;;;5.03;2.27;;;24.10;58.50;;;;;;5003482;28;20716;-74
2023/06/05 09:15:31;;;;;;;2.43;2.23;;;24.20;58.50;;;;;;4984810;28;20460;-73
2023/06/05 09:18:15;;;;;;;2.87;2.27;;;24.30;58.10;;;;;;5001327;28;20530;-73
2023/06/05 09:20:43;;;;;;;2.87;2.50;;;24.20;58.30;;;;;;5001304;28;20452;-72
2023/06/05 09:23:29;;;;;;;2.33;2.13;;;24.30;58.70;;;;;;4991033;28;20993;-73
2023/06/05 09:25:58;;;;;;;3.30;2.53;;;24.50;58.60;;;;;;5004159;28;20463;-71
2023/06/05 09:28:24;;;;;;;2.43;2.23;;;24.40;58.60;;;;;;5007124;28;20534;-74
2023/06/05 09:31:03;;;;;;;5.63;3.07;;;24.50;58.80;;;;;;5004385;28;20472;-72
2023/06/05 09:33:31;;;;;;;2.90;2.00;;;24.60;58.80;;;;;;5006001;28;20472;-73
2023/06/05 09:36:03;;;;;;;3.57;2.20;;;24.60;58.50;;;;;;5006729;28;20456;-71
2023/06/05 09:38:29;;;;;;;2.47;2.33;;;24.60;58.90;;;;;;5002659;28;20464;-73
2023/06/05 09:41:11;;;;;;;2.53;2.33;;;24.90;59.10;;;;;;5005835;28;20456;-73
2023/06/05 09:43:38;;;;;;;3.27;2.90;;;25.00;59.10;;;;;;4983864;28;20466;-72
2023/06/05 09:46:06;;;;;;;3.60;2.67;;;25.10;59.10;;;;;;5006573;28;21001;-73
2023/06/05 09:48:32;;;;;;;4.40;2.30;;;25.20;59.10;;;;;;4988523;28;20894;-74
2023/06/05 09:51:10;;;;;;;2.73;2.37;;;25.20;59.30;;;;;;4999339;28;20479;-72
2023/06/05 09:53:45;;;;;;;3.30;2.27;;;25.30;59.00;;;;;;4991213;28;20472;-73
2023/06/05 09:56:15;;;;;;;4.70;4.10;;;25.20;58.90;;;;;;4991788;28;20500;-72
2023/06/05 09:58:48;;;;;;;4.80;2.80;;;25.40;58.70;;;;;;5007475;28;21036;-74
2023/06/05 10:01:22;;;;;;;2.43;2.23;;;25.50;58.90;;;;;;5006024;28;20472;-73
2023/06/05 10:03:58;;;;;;;3.90;2.50;;;25.40;58.80;;;;;;5003897;28;20471;-73
2023/06/05 10:06:27;;;;;;;2.80;2.60;;;25.40;58.80;;;;;;4986738;28;20480;-73
2023/06/05 10:08:55;;;;;;;2.70;2.50;;;25.60;58.90;;;;;;5017362;28;21220;-73
2023/06/05 10:11:23;;;;;;;2.97;2.67;;;25.80;59.10;;;;;;4986731;28;20477;-74
2023/06/05 10:13:49;;;;;;;3.63;2.63;;;25.90;59.00;;;;;;5005790;28;20472;-73
2023/06/05 10:16:17;;;;;;;2.93;2.70;;;26.00;59.00;;;;;;5002644;28;20476;-72
2023/06/05 10:18:46;;;;;;;3.67;2.73;;;25.80;58.80;;;;;;4988361;28;20971;-73
2023/06/05 10:21:15;;;;;;;3.63;2.90;;;25.80;58.80;;;;;;4988969;28;20481;-73
2023/06/05 10:23:53;;;;;;;3.83;3.47;;;26.10;59.00;;;;;;5002960;28;20456;-74
2023/06/05 10:26:56;;;;;;;3.13;2.93;;;26.00;59.20;;;;;;5000543;28;21055;-72
2023/06/05 10:29:30;;;;;;;3.67;3.20;;;26.10;58.90;;;;;;5005054;28;20512;-72
2023/06/05 10:32:07;;;;;;;3.07;2.77;;;26.20;58.80;;;;;;5000451;28;20526;-72
2023/06/05 10:34:49;;;;;;;3.20;2.90;;;26.40;58.70;;;;;;5003296;28;20484;-74
2023/06/05 10:37:41;;;;;;;3.53;3.17;;;26.30;58.20;;;;;;4985173;28;20488;-74
2023/06/05 10:40:09;;;;;;;6.57;3.00;;;26.20;58.40;;;;;;5018793;28;20465;-73
2023/06/05 10:42:36;;;;;;;2.50;2.30;;;26.10;57.80;;;;;;5007705;28;20450;-74
2023/06/05 10:45:02;;;;;;;2.77;2.57;;;26.20;57.50;;;;;;5006860;28;20534;-73
2023/06/05 10:47:37;;;;;;;3.27;2.87;;;26.40;58.10;;;;;;5002531;28;20468;-73
2023/06/05 10:50:19;;;;;;;3.20;2.77;;;26.60;58.20;;;;;;4981050;28;21232;-73
2023/06/05 10:52:45;;;;;;;3.30;2.70;;;26.70;58.20;;;;;;5006767;28;20533;-73
2023/06/05 10:55:12;;;;;;;4.00;2.70;;;26.70;57.50;;;;;;5001644;28;20584;-72
2023/06/05 10:58:03;;;;;;;2.93;2.60;;;26.60;57.60;;;;;;5007047;28;20216;-74
2023/06/05 11:00:32;;;;;;;2.93;2.73;;;26.80;57.30;;;;;;5002050;28;20454;-73
2023/06/05 11:02:58;;;;;;;2.90;2.50;;;27.00;57.10;;;;;;5004889;28;20291;-73
2023/06/05 11:05:24;;;;;;;5.60;2.60;;;26.80;57.10;;;;;;4988415;28;20465;-72
2023/06/05 11:08:18;;;;;;;3.20;2.90;;;27.00;57.60;;;;;;5004748;28;20958;-74
2023/06/05 11:11:09;;;;;;;3.20;2.88;;;27.30;57.10;;;;;;5006161;28;20244;-75
2023/06/05 11:13:55;;;;;;;3.92;2.63;;;27.20;57.10;;;;;;5010229;28;20217;-73
2023/06/05 11:16:32;;;;;;;2.63;2.43;;;27.40;56.90;;;;;;5004858;28;20218;-74
2023/06/05 11:19:22;;;;;;;2.63;2.42;;;27.30;56.70;;;;;;4991356;28;20319;-75
2023/06/05 11:22:11;;;;;;;4.40;2.77;;;27.30;56.10;;;;;;5003912;28;20219;-74
2023/06/05 11:24:38;;;;;;;3.40;3.10;;;27.10;55.80;;;;;;5005543;28;20226;-74
2023/06/05 11:27:05;;;;;;;3.40;3.10;;;27.30;56.20;;;;;;4984252;28;20214;-74
2023/06/05 11:29:31;;;;;;;3.10;2.88;;;27.50;56.20;;;;;;4990966;28;20225;-74
2023/06/05 11:31:57;;;;;;;2.75;2.55;;;27.40;55.60;;;;;;5009157;28;20307;-73
2023/06/05 11:34:23;;;;;;;2.85;2.65;;;27.50;55.60;;;;;;4988430;28;20287;-74
2023/06/05 11:36:49;;;;;;;2.72;2.53;;;27.90;56.40;;;;;;4992794;28;20318;-74
2023/06/05 11:39:15;;;;;;;3.03;2.63;;;27.80;55.60;;;;;;5007180;28;20228;-74
2023/06/05 11:41:45;;;;;;;5.60;2.90;;;27.10;55.30;;;;;;5009543;28;20745;-73
2023/06/05 11:44:11;;;;;;;5.13;2.83;;;27.00;55.60;;;;;;5005017;28;20224;-72
2023/06/05 11:46:41;;;;;;;3.20;2.55;;;27.00;56.00;;;;;;5006842;28;20221;-74
2023/06/05 11:49:25;;;;;;;6.47;3.10;;;27.10;56.20;;;;;;5004028;28;20213;-74
2023/06/05 11:51:51;;;;;;;2.70;2.50;;;27.20;55.90;;;;;;5009752;28;20220;-74
2023/06/05 11:54:30;;;;;;;3.22;2.85;;;27.70;55.10;;;;;;5007503;28;20236;-73
2023/06/05 11:57:07;;;;;;;2.33;2.22;;;27.70;54.60;;;;;;5003828;28;21082;-74
2023/06/05 11:59:34;;;;;;;2.90;2.60;;;28.00;54.40;;;;;;5009085;28;20637;-74
2023/06/05 12:02:00;;;;;;;2.72;2.53;;;28.00;53.70;;;;;;4981246;28;20214;-74
2023/06/05 12:04:26;;;;;;;2.75;2.40;;;28.20;54.30;;;;;;5009590;28;20225;-74
2023/06/05 12:06:53;;;;;;;2.72;2.50;;;28.50;54.30;;;;;;5003465;28;20252;-74
2023/06/05 12:09:19;;;;;;;3.45;2.88;;;28.60;53.90;;;;;;5006203;28;20255;-72
2023/06/05 12:11:45;;;;;;;3.53;2.60;;;28.50;54.50;;;;;;5005127;28;20267;-74
2023/06/05 12:14:30;;;;;;;2.90;2.70;;;28.00;54.70;;;;;;5009513;28;20221;-75
2023/06/05 12:16:55;;;;;;;2.78;2.58;;;27.70;54.50;;;;;;4986654;28;20217;-74
2023/06/05 12:19:21;;;;;;;6.20;3.15;;;27.50;54.30;;;;;;5004158;28;20593;-74
2023/06/05 12:21:50;;;;;;;3.78;3.47;;;27.70;54.80;;;;;;5006295;28;20580;-75
2023/06/05 12:24:25;;;;;;;2.90;2.40;;;28.00;54.00;;;;;;5008826;28;20220;-74
2023/06/05 12:26:58;;;;;;;2.42;2.22;;;28.10;54.10;;;;;;4993933;28;20216;-74
2023/06/05 12:29:30;;;;;;;2.90;2.70;;;27.90;54.10;;;;;;5006579;28;20237;-73
2023/06/05 12:32:01;;;;;;;3.10;2.80;;;27.80;53.40;;;;;;4999126;28;20293;-73
2023/06/05 12:34:40;;;;;;;3.22;2.70;;;27.90;53.20;;;;;;5001642;28;20707;-74
2023/06/05 12:37:08;;;;;;;4.38;2.88;;;27.80;53.20;;;;;;5002194;28;20209;-74
2023/06/05 12:39:34;;;;;;;2.78;2.58;;;28.00;53.30;;;;;;5002725;28;20226;-73
2023/06/05 12:42:00;;;;;;;3.10;2.80;;;27.90;53.70;;;;;;5005746;28;21019;-75
2023/06/05 12:44:25;;;;;;;3.65;2.67;;;28.00;52.90;;;;;;5008425;28;20295;-74
2023/06/05 12:46:51;;;;;;;3.67;2.50;;;28.00;52.90;;;;;;4996947;28;20212;-74
2023/06/05 12:49:17;;;;;;;5.43;2.78;;;27.90;52.70;;;;;;5005264;28;20221;-74
2023/06/05 12:51:43;;;;;;;2.60;2.40;;;28.10;52.70;;;;;;5000876;28;20225;-73
2023/06/05 12:54:10;;;;;;;5.53;3.30;;;28.00;53.10;;;;;;4984624;28;20269;-74
2023/06/05 12:56:36;;;;;;;2.58;2.38;;;28.00;52.70;;;;;;5006119;28;20306;-74